PWSweather.com
Personal Weather Stations
Station Observations
MICROSHIP
Friday Harbor, Friday Harbor, WA 98250

Friday HarborFriday Harbor, WA 98250

Lat: 48.538, Lon: -123.016

Elevation: 16

Station Type: Ambient Weather WS-1001-WIFI ObserverIP

https://microship.com/

Latest ConditionsUpdated 4:35:00 AM PDT Thursday, Apr 26, 2018
Currently Today's Max Today's Min Today's Average
Temperature 43.5°F6.4°C 48.8°F9.3°C 43.5°F6.4°C 45.3°F7.4°C
Dew Point 43.2°F6.2°C 48.5°F9.2°C 43.2°F6.2°C 45.0°F7.2°C
Winds Calm Calm 1.9 mph W3.1 kmh W - 0.0 mph 0.0 kmh
Wind Gusts -- 7.4 mph11.9 kmh - -
Humidity 99% 99% 99% 99%
Pressure 30.26 in1024.7 mb 30.28 in1025.4 mb 30.26 in1024.7 mb -
Hour Temp Dew Point Humidity Winds Wind Gusts Pressure Precip Precip Rate Daily Precip Total
04:35 AM 43.5°F6.4°C 43.2°F6.2°C 99% Calm Calm -- 30.26 in1024.7 mb 0.00 in0.0 mm 0.00 in0.0 mm 0.00 in0.0 mm
04:30 AM 43.6°F6.4°C 43.3°F6.3°C 99% Calm Calm -- 30.26 in1024.7 mb 0.00 in0.0 mm 0.00 in0.0 mm 0.00 in0.0 mm
04:25 AM 43.7°F6.5°C 43.4°F6.3°C 99% Calm Calm -- 30.26 in1024.7 mb 0.00 in0.0 mm 0.00 in0.0 mm 0.00 in0.0 mm
04:20 AM 43.8°F6.6°C 43.6°F6.4°C 99% Calm Calm -- 30.27 in1025.1 mb 0.00 in0.0 mm 0.00 in0.0 mm 0.00 in0.0 mm
04:15 AM 43.9°F6.6°C 43.7°F6.5°C 99% Calm Calm -- 30.27 in1025.1 mb 0.00 in0.0 mm 0.00 in0.0 mm 0.00 in0.0 mm
04:10 AM 44.1°F6.7°C 43.9°F6.6°C 99% Calm Calm -- 30.27 in1025.1 mb 0.00 in0.0 mm 0.00 in0.0 mm 0.00 in0.0 mm
04:05 AM 44.3°F6.8°C 44.1°F6.7°C 99% Calm Calm -- 30.27 in1025.1 mb 0.00 in0.0 mm 0.00 in0.0 mm 0.00 in0.0 mm
04:00 AM 44.6°F7.0°C 44.3°F6.8°C 99% Calm Calm -- 30.26 in1024.7 mb 0.00 in0.0 mm 0.00 in0.0 mm 0.00 in0.0 mm
03:55 AM 44.7°F7.1°C 44.4°F6.9°C 99% Calm Calm -- 30.26 in1024.7 mb 0.00 in0.0 mm 0.00 in0.0 mm 0.00 in0.0 mm
03:50 AM 44.8°F7.1°C 44.5°F6.9°C 99% Calm Calm -- 30.26 in1024.7 mb 0.00 in0.0 mm 0.00 in0.0 mm 0.00 in0.0 mm
03:45 AM 44.8°F7.1°C 44.5°F6.9°C 99% Calm Calm -- 30.26 in1024.7 mb 0.00 in0.0 mm 0.00 in0.0 mm 0.00 in0.0 mm
03:40 AM 44.8°F7.1°C 44.5°F6.9°C 99% Calm Calm -- 30.26 in1024.7 mb 0.00 in0.0 mm 0.00 in0.0 mm 0.00 in0.0 mm
03:35 AM 44.8°F7.1°C 44.5°F6.9°C 99% Calm Calm -- 30.27 in1025.1 mb 0.00 in0.0 mm 0.00 in0.0 mm 0.00 in0.0 mm
03:30 AM 44.5°F6.9°C 44.3°F6.8°C 99% Calm Calm -- 30.26 in1024.7 mb 0.00 in0.0 mm 0.00 in0.0 mm 0.00 in0.0 mm
03:25 AM 44.4°F6.9°C 44.1°F6.7°C 99% Calm Calm -- 30.27 in1025.1 mb 0.00 in0.0 mm 0.00 in0.0 mm 0.00 in0.0 mm
03:20 AM 44.4°F6.9°C 44.1°F6.7°C 99% 1.9 mph W3.1 kmh W 7.4 mph11.9 kmh 30.27 in1025.1 mb 0.00 in0.0 mm 0.00 in0.0 mm 0.00 in0.0 mm
03:15 AM 44.3°F6.8°C 44.0°F6.7°C 99% 0.6 mph W1.0 kmh W 4.9 mph7.9 kmh 30.27 in1025.1 mb 0.00 in0.0 mm 0.00 in0.0 mm 0.00 in0.0 mm
03:10 AM 44.2°F6.8°C 43.9°F6.6°C 99% Calm Calm -- 30.26 in1024.7 mb 0.00 in0.0 mm 0.00 in0.0 mm 0.00 in0.0 mm
03:05 AM 44.2°F6.8°C 43.9°F6.6°C 99% Calm Calm -- 30.27 in1025.1 mb 0.00 in0.0 mm 0.00 in0.0 mm 0.00 in0.0 mm
03:00 AM 44.2°F6.8°C 43.9°F6.6°C 99% Calm Calm -- 30.27 in1025.1 mb 0.00 in0.0 mm 0.00 in0.0 mm 0.00 in0.0 mm
02:55 AM 44.2°F6.8°C 43.9°F6.6°C 99% Calm Calm -- 30.27 in1025.1 mb 0.00 in0.0 mm 0.00 in0.0 mm 0.00 in0.0 mm
02:50 AM 44.2°F6.8°C 43.9°F6.6°C 99% Calm Calm -- 30.27 in1025.1 mb 0.00 in0.0 mm 0.00 in0.0 mm 0.00 in0.0 mm
02:45 AM 44.3°F6.8°C 44.0°F6.7°C 99% Calm Calm -- 30.27 in1025.1 mb 0.00 in0.0 mm 0.00 in0.0 mm 0.00 in0.0 mm
02:40 AM 44.4°F6.9°C 44.1°F6.7°C 99% Calm Calm -- 30.27 in1025.1 mb 0.00 in0.0 mm 0.00 in0.0 mm 0.00 in0.0 mm
02:35 AM 44.5°F6.9°C 44.3°F6.8°C 99% Calm Calm -- 30.27 in1025.1 mb 0.00 in0.0 mm 0.00 in0.0 mm 0.00 in0.0 mm
02:30 AM 44.6°F7.0°C 44.3°F6.8°C 99% Calm Calm -- 30.27 in1025.1 mb 0.00 in0.0 mm 0.00 in0.0 mm 0.00 in0.0 mm
02:25 AM 44.7°F7.1°C 44.5°F6.9°C 99% Calm Calm -- 30.27 in1025.1 mb 0.00 in0.0 mm 0.00 in0.0 mm 0.00 in0.0 mm
02:20 AM 44.9°F7.2°C 44.7°F7.1°C 99% 0.1 mph WNW0.2 kmh WNW 4.9 mph7.9 kmh 30.27 in1025.1 mb 0.00 in0.0 mm 0.00 in0.0 mm 0.00 in0.0 mm
02:15 AM 45.1°F7.3°C 44.8°F7.1°C 99% Calm Calm -- 30.27 in1025.1 mb 0.00 in0.0 mm 0.00 in0.0 mm 0.00 in0.0 mm
02:10 AM 45.1°F7.3°C 44.8°F7.1°C 99% Calm Calm -- 30.27 in1025.1 mb 0.00 in0.0 mm 0.00 in0.0 mm 0.00 in0.0 mm
02:05 AM 45.2°F7.3°C 44.9°F7.2°C 99% Calm Calm -- 30.27 in1025.1 mb 0.00 in0.0 mm 0.00 in0.0 mm 0.00 in0.0 mm
02:00 AM 45.3°F7.4°C 45.0°F7.2°C 99% Calm Calm -- 30.27 in1025.1 mb 0.00 in0.0 mm 0.00 in0.0 mm 0.00 in0.0 mm
01:55 AM 45.3°F7.4°C 45.0°F7.2°C 99% Calm Calm -- 30.27 in1025.1 mb 0.00 in0.0 mm 0.00 in0.0 mm 0.00 in0.0 mm
01:50 AM 45.3°F7.4°C 45.0°F7.2°C 99% Calm Calm -- 30.27 in1025.1 mb 0.00 in0.0 mm 0.00 in0.0 mm 0.00 in0.0 mm
01:45 AM 45.3°F7.4°C 45.0°F7.2°C 99% Calm Calm -- 30.27 in1025.1 mb 0.00 in0.0 mm 0.00 in0.0 mm 0.00 in0.0 mm
01:40 AM 45.3°F7.4°C 45.0°F7.2°C 99% Calm Calm -- 30.27 in1025.1 mb 0.00 in0.0 mm 0.00 in0.0 mm 0.00 in0.0 mm
01:35 AM 45.5°F7.5°C 45.2°F7.3°C 99% Calm Calm -- 30.27 in1025.1 mb 0.00 in0.0 mm 0.00 in0.0 mm 0.00 in0.0 mm
01:30 AM 45.5°F7.5°C 45.2°F7.3°C 99% Calm Calm -- 30.27 in1025.1 mb 0.00 in0.0 mm 0.00 in0.0 mm 0.00 in0.0 mm
01:25 AM 45.5°F7.5°C 45.2°F7.3°C 99% Calm Calm -- 30.27 in1025.1 mb 0.00 in0.0 mm 0.00 in0.0 mm 0.00 in0.0 mm
01:20 AM 45.7°F7.6°C 45.4°F7.4°C 99% Calm Calm -- 30.27 in1025.1 mb 0.00 in0.0 mm 0.00 in0.0 mm 0.00 in0.0 mm
01:15 AM 45.7°F7.6°C 45.4°F7.4°C 99% Calm Calm -- 30.27 in1025.1 mb 0.00 in0.0 mm 0.00 in0.0 mm 0.00 in0.0 mm
01:10 AM 45.7°F7.6°C 45.4°F7.4°C 99% Calm Calm -- 30.28 in1025.4 mb 0.00 in0.0 mm 0.00 in0.0 mm 0.00 in0.0 mm
01:05 AM 45.9°F7.7°C 45.6°F7.6°C 99% Calm Calm -- 30.28 in1025.4 mb 0.00 in0.0 mm 0.00 in0.0 mm 0.00 in0.0 mm
01:00 AM 45.9°F7.7°C 45.6°F7.6°C 99% Calm Calm -- 30.28 in1025.4 mb 0.00 in0.0 mm 0.00 in0.0 mm 0.00 in0.0 mm
12:55 AM 46.0°F7.8°C 45.7°F7.6°C 99% Calm Calm -- 30.28 in1025.4 mb 0.00 in0.0 mm 0.00 in0.0 mm 0.00 in0.0 mm
12:50 AM 46.2°F7.9°C 45.9°F7.7°C 99% Calm Calm -- 30.28 in1025.4 mb 0.00 in0.0 mm 0.00 in0.0 mm 0.00 in0.0 mm
12:45 AM 46.3°F7.9°C 46.1°F7.8°C 99% Calm Calm -- 30.27 in1025.1 mb 0.00 in0.0 mm 0.00 in0.0 mm 0.00 in0.0 mm
12:40 AM 46.5°F8.1°C 46.2°F7.9°C 99% Calm Calm -- 30.27 in1025.1 mb 0.00 in0.0 mm 0.00 in0.0 mm 0.00 in0.0 mm
12:35 AM 46.7°F8.2°C 46.5°F8.1°C 99% Calm Calm -- 30.28 in1025.4 mb 0.00 in0.0 mm 0.00 in0.0 mm 0.00 in0.0 mm
12:30 AM 46.9°F8.3°C 46.7°F8.2°C 99% Calm Calm -- 30.28 in1025.4 mb 0.00 in0.0 mm 0.00 in0.0 mm 0.00 in0.0 mm
12:25 AM 47.2°F8.4°C 46.9°F8.3°C 99% Calm Calm -- 30.28 in1025.4 mb 0.00 in0.0 mm 0.00 in0.0 mm 0.00 in0.0 mm
12:20 AM 47.6°F8.7°C 47.3°F8.5°C 99% Calm Calm -- 30.28 in1025.4 mb 0.00 in0.0 mm 0.00 in0.0 mm 0.00 in0.0 mm
12:15 AM 47.9°F8.8°C 47.6°F8.7°C 99% Calm Calm -- 30.27 in1025.1 mb 0.00 in0.0 mm 0.00 in0.0 mm 0.00 in0.0 mm
12:10 AM 48.1°F8.9°C 47.9°F8.8°C 99% Calm Calm -- 30.28 in1025.4 mb 0.00 in0.0 mm 0.00 in0.0 mm 0.00 in0.0 mm
12:05 AM 48.5°F9.2°C 48.2°F9.0°C 99% Calm Calm -- 30.28 in1025.4 mb 0.00 in0.0 mm 0.00 in0.0 mm 0.00 in0.0 mm
12:00 AM 48.8°F9.3°C 48.5°F9.2°C 99% Calm Calm -- 30.27 in1025.1 mb 0.00 in0.0 mm 0.00 in0.0 mm 0.00 in0.0 mm